Rocky Hill, Connecticut
Current Conditions -  °F | °C
As of 2:53 AM on Wednesday 26 Nov 2014 (Local Time) from KHFD Reporting Station
Clear Clear  
Wind Chill: 41°   Ceiling: Unl
Heat Index: 45°   Visibility: 10mi
Dew Point: 27°   Wind: 7mph
Humidity: 49%   Direction: 330°NNW
Pressure: 30.19"   Gusts: NA
Location:  41.67°N, 72.64°W
Report Text: KHFD 260753Z AUTO 33006KT 10SM CLR 07/M03 A3019 RMK AO2 SLP224 T00721028
Loading
Personal Weather Stations






























Interactive Weather Map New forecast layout! Learn more

10-Day Weather Forecast

Advertisements
Track Severe Weather on mobile